createdAt,value
2023-04-10T00:00:39.534Z,32.97
2023-04-10T00:03:07.445Z,29.00
2023-04-10T00:05:35.027Z,25.07
2023-04-10T00:08:03.523Z,22.63
2023-04-10T00:10:32.594Z,22.67
2023-04-10T00:13:01.149Z,23.60
2023-04-10T00:15:29.031Z,23.92
2023-04-10T00:17:56.634Z,20.40
2023-04-10T00:20:26.492Z,19.47
2023-04-10T00:22:54.094Z,18.77
2023-04-10T00:25:23.276Z,21.97
2023-04-10T00:27:50.813Z,21.55
2023-04-10T00:30:18.202Z,26.97
2023-04-10T00:32:46.216Z,25.90
2023-04-10T00:35:13.912Z,20.53
2023-04-10T00:37:41.180Z,18.67
2023-04-10T00:40:09.181Z,24.90
2023-04-10T00:42:36.714Z,26.43
2023-04-10T00:45:04.375Z,27.27
2023-04-10T00:47:32.384Z,27.03
2023-04-10T00:50:00.499Z,27.27
2023-04-10T00:52:27.917Z,27.33
2023-04-10T00:54:55.900Z,27.30
2023-04-10T00:57:23.258Z,25.07
2023-04-10T00:59:52.301Z,20.43
2023-04-10T01:02:21.110Z,19.07
2023-04-10T01:04:48.789Z,19.33
2023-04-10T01:07:25.001Z,20.67
2023-04-10T01:10:05.166Z,18.83
2023-04-10T01:12:47.887Z,18.63
2023-04-10T01:15:21.280Z,16.90
2023-04-10T01:18:03.647Z,18.20
2023-04-10T01:20:35.119Z,17.77
2023-04-10T01:23:19.671Z,16.57
2023-04-10T01:26:07.547Z,18.33
2023-04-10T01:29:00.720Z,19.50
2023-04-10T01:31:47.340Z,21.90
2023-04-10T01:34:22.338Z,22.03
2023-04-10T01:36:55.549Z,22.03
2023-04-10T01:39:24.522Z,19.67
2023-04-10T01:41:54.562Z,21.27
2023-04-10T01:44:27.441Z,20.77
2023-04-10T01:46:57.807Z,25.97
2023-04-10T01:49:28.684Z,24.33
2023-04-10T01:52:02.022Z,26.27
2023-04-10T01:54:32.758Z,25.77
2023-04-10T01:57:02.450Z,25.43
2023-04-10T01:59:31.588Z,25.93
2023-04-10T02:02:01.133Z,25.13
2023-04-10T02:04:29.264Z,23.93
2023-04-10T02:07:04.932Z,23.27
2023-04-10T02:10:01.226Z,25.03
2023-04-10T02:12:33.298Z,36.43
2023-04-10T02:15:03.070Z,30.80
2023-04-10T02:17:31.632Z,25.13
2023-04-10T02:20:01.086Z,23.60
2023-04-10T02:22:28.734Z,23.80
2023-04-10T02:24:57.656Z,22.17
2023-04-10T02:27:30.481Z,21.20
2023-04-10T02:29:59.780Z,21.43
2023-04-10T02:32:27.695Z,22.85
2023-04-10T02:34:55.459Z,24.17
2023-04-10T02:37:23.640Z,23.53
2023-04-10T02:39:51.828Z,19.73
2023-04-10T02:42:20.445Z,20.52
2023-04-10T02:44:48.808Z,19.30
2023-04-10T02:47:17.337Z,19.55
2023-04-10T02:49:45.051Z,20.77
2023-04-10T02:52:13.187Z,22.43
2023-04-10T02:54:41.122Z,29.57
2023-04-10T02:57:08.609Z,25.23
2023-04-10T02:59:36.249Z,25.57
2023-04-10T03:02:05.859Z,25.60
2023-04-10T03:04:34.202Z,23.10
2023-04-10T03:07:02.003Z,20.23
2023-04-10T03:09:29.687Z,17.63
2023-04-10T03:11:57.046Z,17.40
2023-04-10T03:14:24.666Z,19.47
2023-04-10T03:16:52.381Z,22.10
2023-04-10T03:19:19.693Z,40.10
2023-04-10T03:21:47.449Z,36.97
2023-04-10T03:24:15.086Z,28.30
2023-04-10T03:26:43.868Z,40.72
2023-04-10T03:29:11.242Z,57.70
2023-04-10T03:31:40.004Z,59.50
2023-04-10T03:34:07.454Z,42.13
2023-04-10T03:36:34.857Z,30.77
2023-04-10T03:39:02.462Z,16.53
2023-04-10T03:41:31.234Z,15.70
2023-04-10T03:43:58.546Z,19.23
2023-04-10T03:46:26.352Z,27.47
2023-04-10T03:49:16.256Z,33.13
2023-04-10T03:51:47.598Z,19.80
2023-04-10T03:54:14.991Z,19.37
2023-04-10T03:56:42.968Z,19.70
2023-04-10T03:59:11.319Z,18.90
2023-04-10T04:01:39.681Z,17.93
2023-04-10T04:04:07.847Z,16.80
2023-04-10T04:06:41.533Z,16.37
2023-04-10T04:09:09.403Z,16.12
2023-04-10T04:11:38.714Z,9.67
2023-04-10T04:14:06.660Z,8.13
2023-04-10T04:16:36.305Z,8.83
2023-04-10T04:19:06.058Z,10.10
2023-04-10T04:21:34.024Z,11.00
2023-04-10T04:24:01.888Z,12.60
2023-04-10T04:26:30.848Z,13.83
2023-04-10T04:29:00.159Z,13.17
2023-04-10T04:31:32.840Z,12.27
2023-04-10T04:34:01.827Z,20.73
2023-04-10T04:36:29.844Z,20.83
2023-04-10T04:38:57.498Z,20.50
2023-04-10T04:41:25.521Z,15.30
2023-04-10T04:43:56.039Z,12.02
2023-04-10T04:46:24.148Z,10.00
2023-04-10T04:48:51.829Z,9.97
2023-04-10T04:51:19.637Z,10.93
2023-04-10T04:53:47.231Z,9.83
2023-04-10T04:56:14.795Z,12.60
2023-04-10T04:58:43.026Z,17.33
2023-04-10T05:01:10.623Z,30.10
2023-04-10T05:03:42.801Z,31.90
2023-04-10T05:06:14.537Z,34.07
2023-04-10T05:08:47.226Z,31.73
2023-04-10T05:11:18.076Z,27.40
2023-04-10T05:13:52.530Z,26.00
2023-04-10T05:16:23.744Z,25.33
2023-04-10T05:18:51.936Z,29.07
2023-04-10T05:21:19.977Z,25.70
2023-04-10T05:23:48.032Z,26.13
2023-04-10T05:26:15.678Z,14.93
2023-04-10T05:28:44.413Z,19.08
2023-04-10T05:31:14.344Z,20.87
2023-04-10T05:36:18.958Z,22.20
2023-04-10T05:41:14.330Z,18.30
2023-04-10T05:43:42.140Z,16.37
2023-04-10T05:46:09.666Z,16.93
2023-04-10T05:48:37.882Z,17.63
2023-04-10T05:51:06.209Z,13.20
2023-04-10T05:53:34.607Z,13.52
2023-04-10T05:56:09.242Z,12.97
2023-04-10T05:58:37.735Z,19.83
2023-04-10T06:03:38.682Z,16.73
2023-04-10T06:06:08.062Z,17.33
2023-04-10T06:08:35.870Z,19.97
2023-04-10T06:11:14.209Z,19.53
2023-04-10T06:13:50.456Z,20.03
2023-04-10T06:16:18.032Z,21.27
2023-04-10T06:18:46.754Z,20.53
2023-04-10T06:21:14.807Z,20.93
2023-04-10T06:23:42.408Z,21.80
2023-04-10T06:26:10.801Z,21.83
2023-04-10T06:28:38.750Z,25.60
2023-04-10T06:31:07.555Z,29.20
2023-04-10T06:33:37.247Z,29.65
2023-04-10T06:36:07.057Z,31.73
2023-04-10T06:38:38.113Z,28.07
2023-04-10T06:41:07.351Z,29.80
2023-04-10T06:43:40.085Z,29.53
2023-04-10T06:46:08.010Z,31.83
2023-04-10T06:48:36.498Z,37.67
2023-04-10T06:51:07.944Z,39.27
2023-04-10T06:53:35.988Z,37.73
2023-04-10T06:56:03.996Z,60.97
2023-04-10T06:58:33.767Z,54.63
2023-04-10T07:01:04.754Z,34.87
2023-04-10T07:03:32.853Z,37.13
2023-04-10T07:06:03.469Z,36.60
2023-04-10T07:08:31.093Z,50.63
2023-04-10T07:10:59.010Z,69.30
2023-04-10T07:13:27.660Z,42.45
2023-04-10T07:15:59.315Z,28.50
2023-04-10T07:18:28.377Z,22.10
2023-04-10T07:20:55.863Z,22.20
2023-04-10T07:23:24.018Z,19.90
2023-04-10T07:25:53.029Z,16.75
2023-04-10T07:28:21.077Z,18.73
2023-04-10T07:30:48.580Z,16.97
2023-04-10T07:33:17.109Z,15.45
2023-04-10T07:35:44.915Z,14.97
2023-04-10T07:38:13.687Z,12.87
2023-04-10T07:40:44.116Z,12.00
2023-04-10T07:43:13.822Z,9.83
2023-04-10T07:45:42.189Z,10.77
2023-04-10T07:48:10.247Z,9.70
2023-04-10T07:50:37.739Z,10.53
2023-04-10T07:53:08.298Z,13.93
2023-04-10T07:55:49.022Z,11.20
2023-04-10T07:58:16.870Z,10.63
2023-04-10T08:00:45.374Z,14.10
2023-04-10T08:03:16.344Z,10.73
2023-04-10T08:05:43.981Z,10.57
2023-04-10T08:08:12.750Z,10.27
2023-04-10T08:10:41.498Z,10.93
2023-04-10T08:13:09.340Z,9.17
2023-04-10T08:15:36.748Z,10.60
2023-04-10T08:18:04.520Z,9.60
2023-04-10T08:20:37.113Z,10.37
2023-04-10T08:23:19.180Z,10.97
2023-04-10T08:25:47.541Z,11.03
2023-04-10T08:28:15.564Z,9.47
2023-04-10T08:30:42.923Z,9.47
2023-04-10T08:33:10.651Z,10.60
2023-04-10T08:35:39.287Z,10.15
2023-04-10T08:38:14.170Z,9.20
2023-04-10T08:40:44.849Z,11.03
2023-04-10T08:43:12.831Z,11.53
2023-04-10T08:45:44.351Z,10.80
2023-04-10T08:48:14.780Z,12.17
2023-04-10T08:50:45.893Z,9.63
2023-04-10T08:53:16.235Z,11.50
2023-04-10T08:55:45.970Z,11.50
2023-04-10T08:58:14.151Z,10.67
2023-04-10T09:00:41.571Z,10.40
2023-04-10T09:03:12.070Z,10.73
2023-04-10T09:05:40.027Z,11.10
2023-04-10T09:08:09.169Z,10.70
2023-04-10T09:10:36.719Z,10.30
2023-04-10T09:13:04.912Z,11.00
2023-04-10T09:15:56.681Z,11.37
2023-04-10T09:18:42.377Z,12.47
2023-04-10T09:21:16.580Z,10.13
2023-04-10T09:23:45.806Z,10.40
2023-04-10T09:26:42.631Z,10.55
2023-04-10T09:29:12.538Z,10.60
2023-04-10T09:31:40.495Z,12.20
2023-04-10T09:34:20.929Z,9.57
2023-04-10T09:36:57.489Z,11.67
2023-04-10T09:39:35.867Z,10.93
2023-04-10T09:42:04.738Z,9.83
2023-04-10T09:44:35.135Z,12.07
2023-04-10T09:47:15.119Z,10.90
2023-04-10T09:49:48.550Z,11.57
2023-04-10T09:52:23.165Z,10.20
2023-04-10T09:54:51.634Z,9.90
2023-04-10T09:57:20.458Z,11.07
2023-04-10T09:59:52.679Z,9.70
2023-04-10T10:02:23.503Z,8.07
2023-04-10T10:04:52.959Z,8.57
2023-04-10T10:07:24.415Z,9.70
2023-04-10T10:09:54.054Z,7.67
2023-04-10T10:12:34.528Z,7.17
2023-04-10T10:15:25.976Z,7.67
2023-04-10T10:18:22.865Z,6.57
2023-04-10T10:20:51.307Z,7.77
2023-04-10T10:23:20.208Z,8.30
2023-04-10T10:25:49.529Z,7.43
2023-04-10T10:28:19.270Z,7.77
2023-04-10T10:30:49.172Z,7.43
2023-04-10T10:33:18.176Z,8.13
2023-04-10T10:38:14.647Z,15.47
2023-04-10T10:40:55.027Z,7.78
2023-04-10T10:43:42.977Z,8.70
2023-04-10T10:46:22.510Z,10.10
2023-04-10T10:49:00.724Z,7.57
2023-04-10T10:51:45.727Z,6.30
2023-04-10T10:54:40.364Z,6.77
2023-04-10T10:57:48.459Z,7.90
2023-04-10T11:00:23.344Z,7.73
2023-04-10T11:03:10.908Z,6.77
2023-04-10T11:05:59.101Z,6.40
2023-04-10T11:08:44.582Z,6.28
2023-04-10T11:11:17.533Z,7.50
2023-04-10T11:13:57.150Z,7.07
2023-04-10T11:16:44.048Z,7.07
2023-04-10T11:19:16.277Z,7.63
2023-04-10T11:22:05.643Z,7.47
2023-04-10T11:25:00.726Z,6.47
2023-04-10T11:27:46.516Z,8.13
2023-04-10T11:30:32.347Z,8.93
2023-04-10T11:33:01.038Z,7.73
2023-04-10T11:35:29.211Z,12.05
2023-04-10T11:38:09.636Z,7.13
2023-04-10T11:40:53.669Z,6.23
2023-04-10T11:43:21.263Z,6.40
2023-04-10T11:45:49.274Z,6.63
2023-04-10T11:48:17.614Z,6.20
2023-04-10T11:50:45.113Z,7.32
2023-04-10T11:53:20.309Z,6.90
2023-04-10T11:55:47.871Z,7.10
2023-04-10T11:58:26.893Z,6.93
2023-04-10T12:00:58.877Z,6.25
2023-04-10T12:03:37.356Z,6.10
2023-04-10T12:06:08.436Z,5.55
2023-04-10T12:08:45.234Z,3.90
2023-04-10T12:11:13.323Z,4.37
2023-04-10T12:13:41.008Z,3.83
2023-04-10T12:16:09.978Z,3.70
2023-04-10T12:18:38.052Z,4.18
2023-04-10T12:21:08.429Z,4.47
2023-04-10T12:23:38.993Z,5.10
2023-04-10T12:26:09.681Z,5.00
2023-04-10T12:28:38.416Z,5.03
2023-04-10T12:31:06.469Z,5.22
2023-04-10T12:33:34.295Z,5.95
2023-04-10T12:36:01.910Z,5.93
2023-04-10T12:38:43.568Z,3.83
2023-04-10T12:41:12.485Z,3.47
2023-04-10T12:43:42.893Z,5.18
2023-04-10T12:46:24.058Z,4.07
2023-04-10T12:48:51.517Z,4.63
2023-04-10T12:51:19.350Z,5.70
2023-04-10T12:53:46.950Z,5.23
2023-04-10T12:56:14.904Z,5.20
2023-04-10T12:58:42.854Z,4.97
2023-04-10T13:01:10.390Z,6.17
2023-04-10T13:03:38.528Z,6.23
2023-04-10T13:06:07.623Z,7.18
2023-04-10T13:08:35.780Z,8.25
2023-04-10T13:11:03.804Z,7.03
2023-04-10T13:13:33.028Z,6.80
2023-04-10T13:18:29.012Z,7.33
2023-04-10T13:20:56.730Z,7.67
2023-04-10T13:23:24.105Z,8.60
2023-04-10T13:25:51.494Z,8.10
2023-04-10T13:28:20.310Z,7.00
2023-04-10T13:30:47.677Z,7.03
2023-04-10T13:33:15.313Z,6.43
2023-04-10T13:35:43.099Z,8.53
2023-04-10T13:38:11.961Z,8.77
2023-04-10T13:40:39.410Z,8.40
2023-04-10T13:43:07.116Z,9.73
2023-04-10T13:45:35.071Z,8.33
2023-04-10T13:48:02.736Z,9.80
2023-04-10T13:50:30.518Z,8.33
2023-04-10T13:52:57.890Z,8.77
2023-04-10T13:55:25.642Z,9.70
2023-04-10T13:57:53.422Z,8.57
2023-04-10T14:00:20.931Z,9.73
2023-04-10T14:02:48.981Z,7.60
2023-04-10T14:05:16.723Z,8.73
2023-04-10T14:07:44.087Z,9.40
2023-04-10T14:10:11.899Z,8.50
2023-04-10T14:12:39.158Z,9.90
2023-04-10T14:15:07.072Z,10.00
2023-04-10T14:17:35.034Z,9.80
2023-04-10T14:20:02.568Z,8.03
2023-04-10T14:22:31.892Z,9.10
2023-04-10T14:25:11.638Z,8.23
2023-04-10T14:27:40.136Z,8.17
2023-04-10T14:30:08.808Z,8.57
2023-04-10T14:32:36.397Z,7.50
2023-04-10T14:35:03.927Z,7.70
2023-04-10T14:37:32.458Z,7.63
2023-04-10T14:39:59.813Z,7.10
2023-04-10T14:42:27.913Z,7.17
2023-04-10T14:44:55.572Z,8.02
2023-04-10T14:47:23.963Z,8.83
2023-04-10T14:49:51.409Z,10.27
2023-04-10T14:52:19.156Z,8.03
2023-04-10T14:54:46.463Z,9.63
2023-04-10T14:57:15.835Z,11.03
2023-04-10T14:59:44.232Z,22.33
2023-04-10T15:02:11.558Z,8.27
2023-04-10T15:04:38.994Z,7.93
2023-04-10T15:07:06.725Z,8.33
2023-04-10T15:09:34.054Z,8.70
2023-04-10T15:12:02.090Z,8.53
2023-04-10T15:14:29.767Z,7.25
2023-04-10T15:16:57.291Z,8.27
2023-04-10T15:19:24.769Z,10.47
2023-04-10T15:21:52.473Z,10.27
2023-04-10T15:24:19.791Z,9.47
2023-04-10T15:26:47.322Z,8.67
2023-04-10T15:29:15.162Z,7.60
2023-04-10T15:31:42.593Z,10.80
2023-04-10T15:34:10.389Z,11.37
2023-04-10T15:36:38.042Z,10.33
2023-04-10T15:39:05.389Z,10.73
2023-04-10T15:41:33.328Z,12.30
2023-04-10T15:44:01.192Z,15.13
2023-04-10T15:46:32.745Z,26.07
2023-04-10T15:49:01.652Z,20.50
2023-04-10T15:51:29.018Z,19.73
2023-04-10T15:53:56.597Z,19.67
2023-04-10T15:56:27.335Z,21.00
2023-04-10T15:58:55.269Z,12.27
2023-04-10T16:01:22.714Z,8.67
2023-04-10T16:03:50.475Z,8.97
2023-04-10T16:06:18.105Z,14.17
2023-04-10T16:08:45.585Z,10.67
2023-04-10T16:11:13.286Z,10.40
2023-04-10T16:13:44.372Z,9.37
2023-04-10T16:16:16.542Z,11.20
2023-04-10T16:18:45.161Z,13.23
2023-04-10T16:21:14.464Z,11.20
2023-04-10T16:23:41.983Z,9.85
2023-04-10T16:26:09.301Z,7.00
2023-04-10T16:28:37.017Z,8.43
2023-04-10T16:31:04.654Z,8.93
2023-04-10T16:33:32.543Z,4.80
2023-04-10T16:36:03.283Z,3.28
2023-04-10T16:38:31.595Z,3.40
2023-04-10T16:41:02.462Z,3.93
2023-04-10T16:43:30.199Z,4.73
2023-04-10T16:45:59.132Z,5.97
2023-04-10T16:48:26.887Z,6.10
2023-04-10T16:53:23.150Z,8.47
2023-04-10T16:55:58.298Z,8.20
2023-04-10T16:58:26.499Z,9.63
2023-04-10T17:00:53.968Z,10.63
2023-04-10T17:03:21.559Z,11.40
2023-04-10T17:05:49.270Z,6.73
2023-04-10T17:08:16.652Z,8.63
2023-04-10T17:10:44.032Z,6.53
2023-04-10T17:13:11.798Z,5.23
2023-04-10T17:15:39.102Z,4.97
2023-04-10T17:18:06.463Z,6.00
2023-04-10T17:20:37.536Z,18.03
2023-04-10T17:23:04.947Z,16.37
2023-04-10T17:25:32.383Z,14.00
2023-04-10T17:28:00.067Z,17.60
2023-04-10T17:30:27.802Z,15.73
2023-04-10T17:32:55.070Z,13.33
2023-04-10T17:35:23.509Z,12.03
2023-04-10T17:37:53.633Z,12.27
2023-04-10T17:40:21.386Z,15.63
2023-04-10T17:42:49.801Z,13.33
2023-04-10T17:45:20.501Z,14.43
2023-04-10T17:47:48.039Z,14.07
2023-04-10T17:50:15.844Z,19.27
2023-04-10T17:52:44.641Z,23.63
2023-04-10T17:55:12.072Z,18.02
2023-04-10T17:57:39.705Z,16.27
2023-04-10T18:00:09.010Z,12.43
2023-04-10T18:02:36.979Z,11.30
2023-04-10T18:05:06.650Z,12.13
2023-04-10T18:07:35.810Z,10.70
2023-04-10T18:10:04.571Z,9.50
2023-04-10T18:12:32.808Z,7.47
2023-04-10T18:15:00.916Z,13.95
2023-04-10T18:17:29.121Z,11.70
2023-04-10T18:19:57.703Z,16.03
2023-04-10T18:22:25.467Z,18.92
2023-04-10T18:24:53.795Z,17.12
2023-04-10T18:27:21.517Z,14.17
2023-04-10T18:29:49.057Z,9.73
2023-04-10T18:32:16.690Z,16.07
2023-04-10T18:34:43.948Z,28.00
2023-04-10T18:37:11.362Z,17.00
2023-04-10T18:39:39.195Z,15.20
2023-04-10T18:42:10.758Z,21.77
2023-04-10T18:44:38.737Z,12.97
2023-04-10T18:47:06.161Z,10.63
2023-04-10T18:49:33.603Z,10.57
2023-04-10T18:52:01.407Z,25.73
2023-04-10T18:54:30.021Z,12.53
2023-04-10T18:56:57.458Z,15.15
2023-04-10T18:59:27.853Z,13.13
2023-04-10T19:01:55.332Z,16.20
2023-04-10T19:04:23.082Z,15.00
2023-04-10T19:06:51.550Z,18.33
2023-04-10T19:09:18.945Z,21.50
2023-04-10T19:11:46.360Z,25.07
2023-04-10T19:14:14.035Z,21.73
2023-04-10T19:16:41.510Z,20.37
2023-04-10T19:19:08.848Z,20.77
2023-04-10T19:21:36.599Z,16.93
2023-04-10T19:24:04.046Z,14.60
2023-04-10T19:26:31.523Z,14.07
2023-04-10T19:28:59.682Z,16.07
2023-04-10T19:31:29.957Z,12.53
2023-04-10T19:33:57.438Z,11.27
2023-04-10T19:36:25.291Z,13.07
2023-04-10T19:38:52.812Z,12.63
2023-04-10T19:41:20.182Z,14.40
2023-04-10T19:43:47.889Z,15.43
2023-04-10T19:46:19.388Z,25.47
2023-04-10T19:48:47.520Z,17.37
2023-04-10T19:51:15.529Z,13.32
2023-04-10T19:53:42.928Z,11.63
2023-04-10T19:56:10.384Z,8.83
2023-04-10T19:58:41.019Z,8.00
2023-04-10T20:01:09.442Z,14.53
2023-04-10T20:03:38.740Z,10.30
2023-04-10T20:06:10.499Z,12.93
2023-04-10T20:08:38.229Z,9.67
2023-04-10T20:11:06.751Z,9.07
2023-04-10T20:13:35.047Z,9.52
2023-04-10T20:16:02.997Z,19.50
2023-04-10T20:18:32.248Z,13.60
2023-04-10T20:20:59.944Z,13.67
2023-04-10T20:23:27.658Z,13.60
2023-04-10T20:25:55.007Z,12.23
2023-04-10T20:28:22.332Z,12.03
2023-04-10T20:30:50.002Z,12.20
2023-04-10T20:33:17.397Z,14.67
2023-04-10T20:35:44.770Z,14.47
2023-04-10T20:38:12.552Z,16.70
2023-04-10T20:40:39.911Z,18.03
2023-04-10T20:43:11.588Z,16.13
2023-04-10T20:45:39.874Z,15.27
2023-04-10T20:48:09.170Z,17.50
2023-04-10T20:50:39.993Z,16.77
2023-04-10T20:53:07.915Z,18.03
2023-04-10T20:55:38.824Z,14.80
2023-04-10T20:58:06.661Z,15.33
2023-04-10T21:00:34.661Z,16.07
2023-04-10T21:03:01.978Z,15.10
2023-04-10T21:05:29.432Z,15.73
2023-04-10T21:07:57.104Z,15.07
2023-04-10T21:10:24.518Z,16.20
2023-04-10T21:12:51.825Z,13.10
2023-04-10T21:15:19.521Z,13.47
2023-04-10T21:17:47.966Z,13.80
2023-04-10T21:20:15.586Z,15.13
2023-04-10T21:22:43.111Z,14.20
2023-04-10T21:25:11.390Z,13.57
2023-04-10T21:27:38.573Z,14.30
2023-04-10T21:30:06.718Z,13.33
2023-04-10T21:32:34.087Z,14.47
2023-04-10T21:35:01.493Z,16.27
2023-04-10T21:37:29.112Z,15.33
2023-04-10T21:39:56.458Z,14.47
2023-04-10T21:42:23.834Z,13.87
2023-04-10T21:44:51.480Z,11.63
2023-04-10T21:47:18.708Z,13.70
2023-04-10T21:49:46.012Z,15.90
2023-04-10T21:52:13.552Z,22.00
2023-04-10T21:54:40.782Z,21.67
2023-04-10T21:57:08.273Z,18.17
2023-04-10T21:59:36.928Z,15.07
2023-04-10T22:02:04.211Z,12.73
2023-04-10T22:04:33.054Z,14.17
2023-04-10T22:07:00.420Z,14.68
2023-04-10T22:09:27.641Z,14.17
2023-04-10T22:11:55.514Z,17.03
2023-04-10T22:14:24.817Z,12.73
2023-04-10T22:19:19.673Z,15.07
2023-04-10T22:21:46.994Z,14.30
2023-04-10T22:24:14.335Z,13.37
2023-04-10T22:26:42.369Z,11.63
2023-04-10T22:29:09.846Z,11.90
2023-04-10T22:31:37.117Z,11.47
2023-04-10T22:34:04.623Z,13.30
2023-04-10T22:36:35.054Z,12.27
2023-04-10T22:39:03.052Z,12.57
2023-04-10T22:41:31.467Z,11.05
2023-04-10T22:43:59.108Z,12.03
2023-04-10T22:46:26.395Z,13.47
2023-04-10T22:48:55.141Z,12.87
2023-04-10T22:51:22.647Z,12.75
2023-04-10T22:53:49.928Z,12.30
2023-04-10T22:56:18.741Z,13.10
2023-04-10T22:58:46.034Z,11.85
2023-04-10T23:01:13.501Z,11.70
2023-04-10T23:03:41.249Z,12.23
2023-04-10T23:06:08.902Z,13.07
2023-04-10T23:08:36.597Z,13.03
2023-04-10T23:11:04.219Z,13.70
2023-04-10T23:13:31.444Z,13.67
2023-04-10T23:15:58.680Z,15.37
2023-04-10T23:18:26.537Z,14.53
2023-04-10T23:20:53.910Z,15.93
2023-04-10T23:23:21.484Z,15.47
2023-04-10T23:25:58.828Z,18.50
2023-04-10T23:28:27.166Z,19.77
2023-04-10T23:30:54.916Z,19.23
2023-04-10T23:33:22.466Z,18.27
2023-04-10T23:35:49.876Z,17.20
2023-04-10T23:38:17.573Z,18.43
2023-04-10T23:40:44.916Z,16.53
2023-04-10T23:43:12.203Z,16.00
2023-04-10T23:45:39.979Z,14.70
2023-04-10T23:48:09.088Z,13.37
2023-04-10T23:50:36.382Z,15.05
2023-04-10T23:53:04.108Z,14.50
2023-04-10T23:55:31.550Z,29.10
2023-04-10T23:57:58.846Z,22.10
